Time;durP1;ratioP1;P1;durP2;ratioP2;P2;SDS_P1;SDS_P2;PMS_P1;PMS_P2;Temp;Humidity;BMP_temperature;BMP_pressure;BME280_temperature;BME280_humidity;BME280_pressure;Samples;Min_cycle;Max_cycle;Signal;HPM_P1;HPM_P2
2021/09/01 00:01:14;;;;;;;;;;;;;;;16.22;76.87;99818.03;1781598;80;21542;-62
2021/09/01 00:03:41;;;;;;;14.45;9.30;;;;;;;16.25;76.92;99820.75;1778753;80;20243;-62
2021/09/01 00:06:07;;;;;;;15.95;9.65;;;;;;;16.24;77.12;99824.52;1791858;80;21046;-62
2021/09/01 00:08:35;;;;;;;14.23;8.45;;;;;;;16.25;77.16;99822.91;1790138;80;21028;-62
2021/09/01 00:11:03;;;;;;;13.53;8.13;;;;;;;16.25;77.23;99822.91;1758701;80;21784;-64
2021/09/01 00:13:29;;;;;;;;;;;;;;;16.23;77.42;99829.59;1790301;80;20995;-62
2021/09/01 00:15:56;;;;;;;17.67;8.70;;;;;;;16.25;77.39;99834.20;1786806;80;20402;-62
2021/09/01 00:18:23;;;;;;;11.30;8.23;;;;;;;16.24;77.52;99828.55;1790850;80;20970;-63
2021/09/01 00:20:49;;;;;;;14.28;7.75;;;;;;;16.27;77.41;99825.36;1789638;80;21147;-62
2021/09/01 00:23:17;;;;;;;9.80;8.25;;;;;;;16.30;77.46;99828.94;1787334;80;20962;-63
2021/09/01 00:25:44;;;;;;;11.22;8.20;;;;;;;16.31;77.52;99830.55;1790771;80;21099;-62
2021/09/01 00:28:10;;;;;;;13.20;7.78;;;;;;;16.33;77.52;99829.78;1790725;80;20990;-62
2021/09/01 00:30:38;;;;;;;14.95;8.28;;;;;;;16.34;77.68;99827.39;1785800;80;21005;-63
2021/09/01 00:33:04;;;;;;;;;;;;;;;16.35;77.74;99825.81;1793947;80;21025;-62
2021/09/01 00:35:31;;;;;;;10.50;8.05;;;;;;;16.38;77.87;99823.70;1786215;80;20168;-63
2021/09/01 00:37:57;;;;;;;10.35;7.42;;;;;;;16.33;78.14;99816.33;1791812;80;21002;-61
2021/09/01 00:40:23;;;;;;;;;;;;;;;16.33;78.14;99820.37;1793905;80;21578;-61
2021/09/01 00:42:49;;;;;;;10.70;7.22;;;;;;;16.31;78.22;99822.48;1790572;80;20157;-62
2021/09/01 00:45:15;;;;;;;12.78;8.15;;;;;;;16.27;78.43;99824.02;1790612;80;20985;-62
2021/09/01 00:47:42;;;;;;;;;;;;;;;16.30;78.53;99818.17;1786457;80;21005;-62
2021/09/01 00:50:10;;;;;;;8.78;7.08;;;;;;;16.34;78.63;99824.70;1791874;80;20155;-62
2021/09/01 00:52:40;;;;;;;14.87;9.20;;;;;;;16.25;78.74;99818.87;1777709;80;21029;-63
2021/09/01 00:55:08;;;;;;;10.20;9.13;;;;;;;16.22;78.90;99815.84;1791009;80;21014;-63
2021/09/01 00:57:39;;;;;;;16.82;7.72;;;;;;;16.23;78.97;99816.14;1778325;80;21459;-62
2021/09/01 01:00:12;;;;;;;9.48;8.23;;;;;;;16.26;78.88;99817.02;1789512;80;21354;-62
2021/09/01 01:02:39;;;;;;;9.83;8.65;;;;;;;16.30;78.68;99812.27;1791234;80;21030;-61
2021/09/01 01:05:07;;;;;;;18.30;8.75;;;;;;;16.33;78.69;99804.23;1774114;80;21112;-63
2021/09/01 01:07:33;;;;;;;11.35;9.88;;;;;;;16.34;78.52;99803.19;1782334;80;21304;-61
2021/09/01 01:10:01;;;;;;;19.98;8.05;;;;;;;16.36;78.53;99803.77;1761841;80;21048;-62
2021/09/01 01:12:27;;;;;;;11.83;8.03;;;;;;;16.38;78.42;99796.27;1762775;80;21042;-60
2021/09/01 01:14:53;;;;;;;12.65;9.05;;;;;;;16.42;78.03;99794.73;1769107;81;20974;-62
2021/09/01 01:17:25;;;;;;;12.15;9.58;;;;;;;16.47;77.79;99795.37;1764860;81;21006;-62
2021/09/01 01:19:53;;;;;;;11.88;8.33;;;;;;;16.47;77.73;99789.99;1771282;80;21047;-61
2021/09/01 01:22:25;;;;;;;13.20;8.13;;;;;;;16.44;77.74;99794.50;1772061;80;20967;-61
2021/09/01 01:25:04;;;;;;;13.22;8.80;;;;;;;16.39;77.92;99799.77;1769380;80;21122;-61
2021/09/01 01:27:40;;;;;;;11.80;8.55;;;;;;;16.30;77.82;99802.05;1762570;80;20971;-62
2021/09/01 01:30:19;;;;;;;10.43;8.33;;;;;;;16.19;77.87;99802.36;1753722;81;21491;-61
2021/09/01 01:32:50;;;;;;;10.10;8.43;;;;;;;16.13;77.93;99800.63;1764357;81;21055;-61
2021/09/01 01:35:41;;;;;;;12.23;8.35;;;;;;;16.04;78.18;99793.98;1762425;81;21626;-62
2021/09/01 01:38:15;;;;;;;9.43;8.43;;;;;;;15.71;78.53;99753.25;1766115;81;21598;-61
2021/09/01 01:40:42;;;;;;;15.05;8.73;;;;;;;15.91;78.78;99791.03;1771705;81;21479;-62
2021/09/01 01:43:09;;;;;;;9.85;8.53;;;;;;;15.85;78.81;99788.77;1770512;81;21520;-61
2021/09/01 01:45:45;;;;;;;15.03;8.38;;;;;;;15.85;79.14;99788.77;1771850;80;20949;-62
2021/09/01 01:48:14;;;;;;;14.05;9.93;;;;;;;15.82;79.14;99779.01;1771310;81;21081;-62
2021/09/01 01:50:43;;;;;;;8.35;7.50;;;;;;;15.78;79.42;99781.88;1767157;81;21504;-62
2021/09/01 01:53:11;;;;;;;10.80;7.53;;;;;;;15.78;79.78;99780.54;1765842;81;21094;-63
2021/09/01 01:55:39;;;;;;;9.18;7.97;;;;;;;15.77;79.90;99777.05;1767061;80;20967;-62
2021/09/01 01:58:05;;;;;;;15.08;7.72;;;;;;;15.76;80.01;99776.73;1764675;80;21022;-63
2021/09/01 02:00:32;;;;;;;10.70;9.40;;;;;;;15.78;80.02;99780.54;1767202;81;21105;-63
2021/09/01 02:02:59;;;;;;;13.78;8.93;;;;;;;15.77;79.88;99773.02;1744429;81;20986;-62
2021/09/01 02:05:25;;;;;;;11.22;8.35;;;;;;;15.79;79.69;99768.75;1769379;80;21099;-62
2021/09/01 02:07:52;;;;;;;8.80;7.78;;;;;;;15.73;80.02;99764.61;1765136;80;21459;-61
2021/09/01 02:10:19;;;;;;;9.20;7.65;;;;;;;15.73;80.02;99764.61;1786637;80;21633;-62
2021/09/01 02:12:47;;;;;;;9.50;8.55;;;;;;;15.71;79.75;99752.44;1776797;80;20993;-62
2021/09/01 02:15:16;;;;;;;8.80;7.90;;;;;;;15.73;79.98;99751.67;1783461;80;21081;-61
2021/09/01 02:17:43;;;;;;;9.10;7.53;;;;;;;15.73;79.98;99751.67;1789059;80;20986;-62
2021/09/01 02:20:12;;;;;;;8.43;7.60;;;;;;;15.74;80.01;99750.64;1787650;80;20982;-62
2021/09/01 02:22:42;;;;;;;8.93;7.85;;;;;;;15.76;80.03;99751.21;1786617;80;21625;-62
2021/09/01 02:25:11;;;;;;;8.68;6.78;;;;;;;15.74;80.24;99746.07;1787552;80;21502;-62
2021/09/01 02:27:38;;;;;;;10.58;7.37;;;;;;;15.76;80.17;99742.65;1781461;80;21076;-61
2021/09/01 02:30:07;;;;;;;8.33;7.62;;;;;;;15.81;80.06;99746.48;1782706;80;21005;-63
2021/09/01 02:32:34;;;;;;;8.63;7.70;;;;;;;15.84;79.99;99750.03;1789958;80;20982;-63
2021/09/01 02:35:02;;;;;;;10.10;8.13;;;;;;;15.88;79.96;99749.33;1786805;80;21022;-60
2021/09/01 02:37:28;;;;;;;10.15;7.90;;;;;;;15.88;80.00;99748.49;1791341;80;20961;-61
2021/09/01 02:39:54;;;;;;;;;;;;;;;15.88;80.00;99748.49;1793551;80;21045;-61
2021/09/01 02:42:20;;;;;;;11.83;8.88;;;;;;;15.86;79.79;99747.91;1789283;80;20543;-62
2021/09/01 02:44:46;;;;;;;11.70;10.53;;;;;;;15.76;79.81;99748.02;1786432;80;20974;-62
2021/09/01 02:47:12;;;;;;;10.93;9.55;;;;;;;15.73;79.69;99749.83;1753199;81;21489;-62
2021/09/01 02:49:38;;;;;;;7.50;6.72;;;;;;;15.74;79.58;99748.76;1773387;81;21042;-62
2021/09/01 02:52:05;;;;;;;8.43;7.53;;;;;;;15.73;79.70;99741.77;1776632;80;21057;-61
2021/09/01 02:54:32;;;;;;;11.12;7.55;;;;;;;15.72;79.85;99738.75;1774182;81;22063;-61
2021/09/01 02:56:58;;;;;;;9.80;7.78;;;;;;;15.73;79.64;99737.73;1774610;80;20985;-62
2021/09/01 02:59:24;;;;;;;;;;;;;;;15.68;79.55;99741.63;1773091;81;21046;-64
2021/09/01 03:01:50;;;;;;;8.65;7.05;;;;;;;15.64;79.71;99747.72;1776183;80;20159;-62
2021/09/01 03:04:17;;;;;;;9.73;6.60;;;;;;;15.54;80.04;99745.63;1776528;80;21042;-62
2021/09/01 03:06:43;;;;;;;9.98;6.70;;;;;;;15.52;80.35;99745.86;1776398;81;21077;-61
2021/09/01 03:09:09;;;;;;;8.70;6.65;;;;;;;15.54;80.60;99748.31;1775059;80;21531;-62
2021/09/01 03:11:35;;;;;;;8.23;7.55;;;;;;;15.54;80.95;99753.69;1790562;80;21037;-63
2021/09/01 03:14:02;;;;;;;7.97;7.12;;;;;;;15.52;80.88;99746.36;1790834;80;21065;-63
2021/09/01 03:16:28;;;;;;;8.15;7.35;;;;;;;15.49;80.97;99738.27;1789597;80;21026;-63
2021/09/01 03:18:56;;;;;;;7.60;7.00;;;;;;;15.51;80.82;99735.34;1789227;80;21037;-63
2021/09/01 03:24:22;;;;;;;9.13;7.60;;;;;;;15.57;81.01;99729.83;1757094;78;22608;-62
2021/09/01 03:26:51;;;;;;;8.68;7.10;;;;;;;15.54;81.11;99724.95;1728760;81;21171;-63
2021/09/01 03:29:18;;;;;;;10.43;7.35;;;;;;;15.55;81.01;99728.45;1728513;81;21513;-63
2021/09/01 03:31:44;;;;;;;;;;;;;;;15.58;80.88;99728.80;1729681;81;20955;-62
2021/09/01 03:34:12;;;;;;;8.88;7.97;;;;;;;15.64;80.74;99725.69;1733594;81;20126;-63
2021/09/01 03:36:38;;;;;;;8.45;7.65;;;;;;;15.60;80.73;99730.44;1736765;82;21538;-62
2021/09/01 03:39:04;;;;;;;12.58;7.53;;;;;;;15.63;80.82;99736.66;1734411;82;21787;-62
2021/09/01 03:41:32;;;;;;;9.48;7.42;;;;;;;15.79;80.16;99739.20;1734540;82;21069;-63
2021/09/01 03:43:58;;;;;;;8.90;6.33;;;;;;;15.79;80.16;99739.20;1727600;82;21090;-63
2021/09/01 03:46:25;;;;;;;7.22;6.58;;;;;;;16.05;79.13;99733.77;1670274;80;21004;-62
2021/09/01 03:48:51;;;;;;;7.05;6.37;;;;;;;16.05;79.13;99733.77;1668636;84;21032;-63
2021/09/01 03:51:18;;;;;;;7.62;6.83;;;;;;;16.38;78.07;99734.95;1652704;84;21080;-63
2021/09/01 03:53:45;;;;;;;;;;;;;;;16.76;74.17;99730.22;1668875;85;21091;-64
2021/09/01 03:56:11;;;;;;;7.58;6.87;;;;;;;17.13;72.46;99727.88;1630507;85;20165;-63
2021/09/01 03:58:37;;;;;;;10.10;6.87;;;;;;;17.41;71.80;99734.21;1609446;88;21189;-63
2021/09/01 04:01:03;;;;;;;8.30;6.42;;;;;;;17.73;70.75;99738.95;1653506;84;21365;-64
2021/09/01 04:03:29;;;;;;;7.08;6.08;;;;;;;18.06;69.74;99738.55;1674818;84;21040;-63
2021/09/01 04:06:00;;;;;;;9.70;6.78;;;;;;;18.30;68.40;99737.74;1672330;84;21103;-64
2021/09/01 04:08:26;;;;;;;8.98;6.30;;;;;;;18.45;67.70;99733.84;1678486;84;21028;-63
2021/09/01 04:10:53;;;;;;;10.05;7.03;;;;;;;18.51;66.58;99736.05;1679665;84;21776;-62
2021/09/01 04:13:19;;;;;;;9.88;6.90;;;;;;;18.52;66.53;99740.94;1668190;84;21089;-62
2021/09/01 04:15:45;;;;;;;7.40;6.28;;;;;;;18.45;66.35;99743.28;1658712;85;21113;-63
2021/09/01 04:18:11;;;;;;;8.88;5.75;;;;;;;18.31;66.48;99736.69;1693778;84;21899;-62
2021/09/01 04:20:41;;;;;;;9.50;7.00;;;;;;;18.20;67.01;99736.30;1667425;84;21068;-63
2021/09/01 04:23:12;;;;;;;6.72;6.08;;;;;;;18.11;66.58;99739.16;1654976;84;21141;-62
2021/09/01 04:25:40;;;;;;;11.15;6.35;;;;;;;18.03;67.19;99739.88;1649346;86;21075;-63
2021/09/01 04:28:08;;;;;;;9.58;5.90;;;;;;;18.05;67.63;99735.59;1646539;85;21140;-62
2021/09/01 04:30:34;;;;;;;8.03;6.50;;;;;;;18.06;67.96;99735.34;1652718;86;21150;-64
2021/09/01 04:33:00;;;;;;;6.92;6.22;;;;;;;18.04;67.53;99736.64;1643843;86;21014;-64
2021/09/01 04:35:29;;;;;;;8.30;6.50;;;;;;;18.00;67.36;99736.33;1633635;86;21117;-63
2021/09/01 04:38:10;;;;;;;7.20;6.28;;;;;;;18.05;67.40;99728.31;1631016;87;21583;-64
2021/09/01 04:40:33;;;;;;;5.95;5.28;;;;;;;18.09;67.20;99728.08;1630425;86;21091;-64
2021/09/01 04:43:01;;;;;;;14.38;6.20;;;;;;;18.18;67.13;99720.91;1637225;86;21101;-63
2021/09/01 04:45:29;;;;;;;8.43;5.80;;;;;;;18.25;67.17;99717.45;1628169;86;21127;-65
2021/09/01 04:47:55;;;;;;;8.75;5.78;;;;;;;18.36;66.94;99721.88;1636396;86;21015;-65
2021/09/01 04:50:23;;;;;;;6.55;6.05;;;;;;;18.51;66.90;99715.01;1653412;85;21073;-65
2021/09/01 04:52:49;;;;;;;6.95;6.15;;;;;;;18.68;66.54;99714.34;1652266;85;21575;-64
2021/09/01 04:55:17;;;;;;;7.42;5.85;;;;;;;18.96;66.06;99715.95;1654952;85;20994;-65
2021/09/01 04:57:44;;;;;;;7.70;6.85;;;;;;;19.29;65.44;99715.38;1604366;88;21112;-66
2021/09/01 05:00:11;;;;;;;9.13;6.47;;;;;;;19.68;63.42;99718.27;1633385;86;21048;-64
2021/09/01 05:02:38;;;;;;;9.98;7.28;;;;;;;19.88;63.22;99715.67;1643630;86;21450;-69
2021/09/01 05:05:06;;;;;;;13.80;6.67;;;;;;;19.89;61.97;99718.66;1663572;85;21510;-65
2021/09/01 05:07:33;;;;;;;9.63;6.95;;;;;;;19.72;62.13;99714.81;1655901;85;21090;-64
2021/09/01 05:09:59;;;;;;;7.17;6.50;;;;;;;19.47;61.85;99718.70;1667674;85;21046;-64
2021/09/01 05:12:26;;;;;;;;;;;;;;;19.14;62.71;99715.28;1658430;85;20982;-64
2021/09/01 05:14:57;;;;;;;7.95;6.20;;;;;;;18.83;63.28;99720.44;1658236;85;20146;-63
2021/09/01 05:17:23;;;;;;;7.28;5.60;;;;;;;18.45;64.32;99720.35;1661668;85;21045;-64
2021/09/01 05:19:50;;;;;;;5.90;5.30;;;;;;;18.27;65.58;99715.31;1661279;85;20998;-65
2021/09/01 05:22:23;;;;;;;5.97;5.42;;;;;;;18.28;65.60;99708.31;1661824;85;21134;-65
2021/09/01 05:25:12;;;;;;;8.23;5.10;;;;;;;18.33;64.80;99707.56;1614422;87;21030;-65
2021/09/01 05:27:45;;;;;;;5.67;5.28;;;;;;;18.33;64.70;99705.38;1634161;86;21147;-65
2021/09/01 05:30:15;;;;;;;7.47;5.40;;;;;;;18.21;64.60;99706.34;1633748;86;20965;-65
2021/09/01 05:32:44;;;;;;;6.10;5.55;;;;;;;18.13;65.17;99704.66;1632225;86;20999;-63
2021/09/01 05:35:13;;;;;;;6.15;4.78;;;;;;;18.08;65.46;99707.59;1650074;85;21042;-65
2021/09/01 05:37:42;;;;;;;7.72;6.58;;;;;;;18.06;65.71;99712.94;1656972;85;20978;-65
2021/09/01 05:40:12;;;;;;;10.25;5.55;;;;;;;18.07;65.47;99710.53;1660834;84;21043;-65
2021/09/01 05:42:38;;;;;;;6.62;5.30;;;;;;;18.12;65.75;99713.80;1654012;85;21050;-65
2021/09/01 05:45:09;;;;;;;5.87;5.20;;;;;;;18.13;65.00;99706.01;1656517;85;21045;-64
2021/09/01 05:47:36;;;;;;;11.45;5.92;;;;;;;18.16;65.40;99713.58;1653306;86;21053;-65
2021/09/01 05:50:04;;;;;;;10.05;6.25;;;;;;;18.16;65.04;99710.87;1653371;86;21121;-65
2021/09/01 05:52:32;;;;;;;7.40;5.70;;;;;;;18.14;65.55;99711.67;1646460;86;21137;-65
2021/09/01 05:55:03;;;;;;;8.83;6.28;;;;;;;18.17;65.81;99712.52;1658881;85;21049;-65
2021/09/01 05:57:36;;;;;;;6.60;5.90;;;;;;;18.17;65.56;99710.63;1643360;86;21093;-64
2021/09/01 06:00:13;;;;;;;8.67;5.90;;;;;;;18.18;65.24;99707.42;1657788;85;21054;-65
2021/09/01 06:02:52;;;;;;;8.83;5.33;;;;;;;18.19;65.53;99711.73;1658169;85;21136;-64
2021/09/01 06:05:23;;;;;;;6.30;5.83;;;;;;;18.20;65.19;99709.33;1659350;85;21059;-66
2021/09/01 06:07:53;;;;;;;12.07;5.92;;;;;;;18.18;65.66;99711.47;1658134;85;21011;-64
2021/09/01 06:10:32;;;;;;;8.05;6.62;;;;;;;18.13;65.98;99707.36;1670669;84;21046;-65
2021/09/01 06:13:10;;;;;;;8.98;5.75;;;;;;;18.13;66.42;99712.75;1649472;85;21173;-64
2021/09/01 06:15:40;;;;;;;5.45;4.90;;;;;;;18.19;66.82;99713.88;1664241;85;20993;-64
2021/09/01 06:18:08;;;;;;;6.67;5.47;;;;;;;18.39;65.90;99719.23;1680106;84;21800;-65
2021/09/01 06:20:38;;;;;;;6.20;5.45;;;;;;;18.61;65.35;99717.78;1683181;84;21848;-64
2021/09/01 06:23:06;;;;;;;7.25;6.12;;;;;;;18.84;64.78;99707.23;1685124;84;21050;-65
2021/09/01 06:25:35;;;;;;;8.85;5.28;;;;;;;19.13;63.46;99708.23;1674708;84;21103;-65
2021/09/01 06:28:06;;;;;;;7.97;5.45;;;;;;;19.42;62.22;99702.75;1679912;84;21037;-68
2021/09/01 06:30:35;;;;;;;8.08;4.90;;;;;;;19.60;60.92;99700.11;1675572;84;21086;-65
2021/09/01 06:33:04;;;;;;;11.28;5.78;;;;;;;19.72;59.67;99699.08;1676468;84;21014;-66
2021/09/01 06:35:33;;;;;;;5.78;5.12;;;;;;;19.76;59.54;99704.26;1677492;84;21137;-65
2021/09/01 06:38:01;;;;;;;13.90;5.45;;;;;;;19.78;58.44;99697.53;1678657;84;21568;-66
2021/09/01 06:40:27;;;;;;;5.15;4.65;;;;;;;19.74;58.34;99701.01;1693401;83;21057;-65
2021/09/01 06:42:55;;;;;;;9.40;4.40;;;;;;;19.73;59.17;99703.45;1678339;83;21062;-65
2021/09/01 06:45:21;;;;;;;;;;;;;;;19.74;58.31;99702.36;1669279;85;21018;-66
2021/09/01 06:47:53;;;;;;;5.47;4.10;;;;;;;19.67;57.53;99706.64;1684266;84;20188;-65
2021/09/01 06:50:23;;;;;;;8.15;4.75;;;;;;;19.56;58.68;99706.32;1658128;86;21070;-65
2021/09/01 06:52:54;;;;;;;7.95;4.78;;;;;;;19.52;59.06;99707.93;1658488;86;21089;-64
2021/09/01 06:55:21;;;;;;;7.78;4.87;;;;;;;19.48;58.82;99708.98;1667822;85;21047;-65
2021/09/01 06:57:47;;;;;;;9.03;5.83;;;;;;;19.44;59.42;99707.34;1660013;85;21066;-65
2021/09/01 07:00:19;;;;;;;9.75;4.45;;;;;;;19.43;59.66;99708.95;1653768;85;22233;-66
2021/09/01 07:02:47;;;;;;;10.58;4.72;;;;;;;19.42;60.08;99713.55;1639380;86;21012;-80
2021/09/01 07:05:15;;;;;;;7.55;4.85;;;;;;;19.45;59.95;99710.86;1633073;86;21670;-67
2021/09/01 07:07:43;;;;;;;6.92;4.90;;;;;;;19.51;59.89;99711.14;1628792;87;21127;-67
2021/09/01 07:10:11;;;;;;;9.20;4.53;;;;;;;19.56;59.89;99716.59;1626379;87;21062;-65
2021/09/01 07:12:38;;;;;;;14.20;5.55;;;;;;;19.61;59.59;99711.76;1656691;85;21072;-69
2021/09/01 07:15:09;;;;;;;11.43;5.47;;;;;;;19.65;59.80;99710.95;1664185;85;21137;-66
2021/09/01 07:17:37;;;;;;;11.85;6.67;;;;;;;19.71;59.86;99709.63;1668500;85;21578;-67
2021/09/01 07:20:07;;;;;;;6.53;5.20;;;;;;;19.73;60.30;99713.72;1651207;86;21686;-66
2021/09/01 07:22:35;;;;;;;11.45;5.80;;;;;;;19.75;60.01;99709.41;1646293;85;21123;-68
2021/09/01 07:25:05;;;;;;;11.10;5.12;;;;;;;19.76;59.38;99709.66;1675197;84;21050;-66
2021/09/01 07:27:33;;;;;;;11.43;5.90;;;;;;;19.70;59.46;99704.74;1680223;84;21062;-65
2021/09/01 07:30:00;;;;;;;15.98;6.28;;;;;;;19.67;59.66;99704.48;1675062;84;21141;-66
2021/09/01 07:32:27;;;;;;;12.98;5.55;;;;;;;19.66;60.07;99713.11;1675292;84;21113;-65
2021/09/01 07:34:53;;;;;;;;;;;;;;;19.63;59.92;99710.95;1663972;83;21134;-66
2021/09/01 07:37:19;;;;;;;17.02;6.37;;;;;;;19.62;59.98;99718.78;1654853;86;20309;-65
2021/09/01 07:39:45;;;;;;;11.83;5.33;;;;;;;19.50;59.38;99716.30;1625939;87;21075;-66
2021/09/01 07:42:11;;;;;;;;;;;;;;;19.39;60.31;99720.82;1603400;88;21546;-66
2021/09/01 07:44:37;;;;;;;19.87;6.83;;;;;;;19.33;60.49;99719.72;1631271;87;20451;-64
2021/09/01 07:47:03;;;;;;;16.40;7.33;;;;;;;19.22;61.22;99718.84;1626167;87;21019;-66
2021/09/01 07:49:30;;;;;;;17.32;7.28;;;;;;;19.17;61.55;99726.35;1652992;85;21108;-65
2021/09/01 07:52:01;;;;;;;15.83;6.97;;;;;;;19.15;61.94;99716.89;1655915;86;21060;-67
2021/09/01 07:54:27;;;;;;;11.00;6.87;;;;;;;19.22;62.12;99718.84;1604929;88;21214;-67
2021/09/01 07:56:53;;;;;;;14.33;7.12;;;;;;;19.32;62.25;99723.48;1650390;83;21155;-65
2021/09/01 07:59:20;;;;;;;10.55;6.65;;;;;;;19.35;61.51;99714.32;1637173;86;22056;-66
2021/09/01 08:01:46;;;;;;;18.05;6.72;;;;;;;19.35;61.97;99721.63;1626877;86;21647;-67
2021/09/01 08:04:14;;;;;;;15.98;7.05;;;;;;;19.36;61.88;99719.17;1624262;87;21654;-67
2021/09/01 08:06:41;;;;;;;10.03;7.03;;;;;;;19.38;62.41;99722.43;1626615;87;21081;-66
2021/09/01 08:09:07;;;;;;;19.75;7.87;;;;;;;19.39;62.59;99727.58;1622466;87;21098;-66
2021/09/01 08:11:33;;;;;;;;;;;;;;;19.37;62.32;99723.52;1638316;85;21081;-66
2021/09/01 08:14:00;;;;;;;12.40;5.90;;;;;;;19.34;62.30;99721.33;1634425;87;20143;-74
2021/09/01 08:16:28;;;;;;;11.97;6.22;;;;;;;19.28;62.33;99723.19;1627047;86;21133;-74
2021/09/01 08:18:56;;;;;;;12.47;6.20;;;;;;;19.26;61.44;99722.09;1625669;87;21105;-75
2021/09/01 08:21:22;;;;;;;8.08;6.00;;;;;;;19.28;61.41;99726.44;1620417;87;21018;-76
2021/09/01 08:23:48;;;;;;;25.48;6.35;;;;;;;19.29;61.88;99722.64;1620713;85;22065;-75
2021/09/01 08:26:14;;;;;;;7.42;6.15;;;;;;;19.35;62.16;99729.18;1620490;87;21069;-76
2021/09/01 08:28:41;;;;;;;;;;;;;;;19.44;61.70;99720.05;1623648;87;21045;-76
2021/09/01 08:31:07;;;;;;;14.18;5.83;;;;;;;19.54;61.38;99716.04;1621177;87;20169;-76
2021/09/01 08:33:35;;;;;;;20.70;6.42;;;;;;;19.58;61.17;99719.84;1618728;87;21593;-77
2021/09/01 08:36:01;;;;;;;10.93;6.33;;;;;;;19.66;60.71;99718.52;1594358;88;21152;-75
2021/09/01 08:38:27;;;;;;;;;;;;;;;19.77;60.48;99719.41;1604156;88;21115;-74
2021/09/01 08:40:53;;;;;;;8.13;5.80;;;;;;;19.88;60.03;99725.69;1602444;88;20277;-76
2021/09/01 08:43:20;;;;;;;10.78;5.30;;;;;;;19.93;60.07;99723.81;1608012;88;21391;-75
2021/09/01 08:45:48;;;;;;;7.78;5.42;;;;;;;20.05;59.01;99728.18;1597305;88;21100;-74
2021/09/01 08:48:16;;;;;;;9.13;5.37;;;;;;;20.15;58.72;99722.78;1572558;90;21072;-73
2021/09/01 08:50:44;;;;;;;12.00;5.70;;;;;;;20.25;58.64;99724.17;1576652;89;21632;-75
2021/09/01 08:53:12;;;;;;;11.18;5.42;;;;;;;20.35;57.86;99721.48;1604844;88;21624;-76
2021/09/01 08:55:41;;;;;;;7.03;5.47;;;;;;;20.42;57.78;99722.03;1569285;89;21083;-76
2021/09/01 08:58:08;;;;;;;9.88;5.78;;;;;;;20.45;57.76;99723.93;1578764;89;21136;-77
2021/09/01 09:00:34;;;;;;;11.63;4.80;;;;;;;20.38;57.70;99720.12;1599093;87;21046;-75
2021/09/01 09:03:01;;;;;;;7.65;5.28;;;;;;;20.33;57.31;99720.94;1578769;89;21202;-76
2021/09/01 09:05:37;;;;;;;6.37;4.72;;;;;;;20.29;57.75;99721.20;1578539;89;21083;-75
2021/09/01 09:08:11;;;;;;;;;;;;;;;20.29;57.97;99716.34;1601055;89;21079;-75
2021/09/01 09:10:44;;;;;;;7.20;4.92;;;;;;;20.27;58.04;99722.02;1603692;89;20219;-76
2021/09/01 09:13:15;;;;;;;7.83;5.50;;;;;;;20.19;58.71;99719.30;1641957;86;21681;-76
2021/09/01 09:15:43;;;;;;;10.13;5.25;;;;;;;20.18;58.10;99714.14;1639585;86;22139;-75
2021/09/01 09:18:32;;;;;;;8.25;4.87;;;;;;;20.12;58.74;99721.98;1639306;86;21642;-75
2021/09/01 09:21:21;;;;;;;9.30;5.45;;;;;;;20.07;58.63;99720.61;1636901;86;21581;-75
2021/09/01 09:23:50;;;;;;;9.55;4.95;;;;;;;19.97;57.62;99719.50;1644991;84;21022;-74
2021/09/01 09:26:29;;;;;;;8.68;5.92;;;;;;;19.88;57.48;99722.44;1620829;87;21014;-75
2021/09/01 09:29:18;;;;;;;6.65;5.17;;;;;;;19.83;57.52;99725.11;1611491;87;21022;-76
2021/09/01 09:32:00;;;;;;;8.33;4.65;;;;;;;19.82;57.62;99727.56;1572244;89;21549;-76
2021/09/01 09:34:42;;;;;;;6.12;5.25;;;;;;;19.82;57.81;99720.80;1635142;86;21054;-75
2021/09/01 09:37:12;;;;;;;4.95;4.17;;;;;;;19.83;58.01;99713.78;1621889;87;21476;-75
2021/09/01 09:39:46;;;;;;;10.00;5.08;;;;;;;19.88;58.47;99718.37;1624525;87;21143;-75
2021/09/01 09:42:31;;;;;;;11.88;5.28;;;;;;;19.92;58.33;99719.47;1616311;87;21760;-76
2021/09/01 09:45:00;;;;;;;14.13;12.75;;;;;;;19.97;57.79;99715.98;1611419;87;21050;-75
2021/09/01 09:47:46;;;;;;;11.53;6.28;;;;;;;19.99;58.55;99717.34;1613446;88;21143;-75
2021/09/01 09:50:13;;;;;;;7.40;5.17;;;;;;;20.05;57.79;99718.16;1620144;88;21198;-75
2021/09/01 09:52:42;;;;;;;5.08;4.30;;;;;;;20.12;57.24;99713.87;1604246;88;21185;-75
2021/09/01 09:55:21;;;;;;;8.73;4.15;;;;;;;20.18;55.55;99715.50;1607907;88;21108;-77
2021/09/01 09:58:01;;;;;;;9.43;3.92;;;;;;;20.22;54.64;99717.94;1642582;86;21108;-75
2021/09/01 10:00:30;;;;;;;4.35;3.45;;;;;;;20.19;52.57;99708.98;1639702;86;21137;-75
2021/09/01 10:02:57;;;;;;;7.90;3.70;;;;;;;20.15;52.03;99701.94;1630145;87;21065;-76
2021/09/01 10:05:27;;;;;;;5.28;3.77;;;;;;;20.17;52.63;99698.98;1634975;86;21143;-75
2021/09/01 10:07:57;;;;;;;3.83;3.52;;;;;;;20.19;52.60;99694.11;1637318;87;21089;-76
2021/09/01 10:10:25;;;;;;;5.90;4.00;;;;;;;20.21;52.62;99690.59;1632387;87;21057;-75
2021/09/01 10:12:51;;;;;;;;;;;;;;;20.24;52.57;99694.13;1631583;86;21080;-74
2021/09/01 10:15:31;;;;;;;7.17;2.92;;;;;;;20.27;52.29;99693.60;1628366;86;20187;-76
2021/09/01 10:18:05;;;;;;;3.42;2.90;;;;;;;20.23;52.35;99692.52;1647277;86;21158;-74
2021/09/01 10:20:33;;;;;;;4.00;3.60;;;;;;;20.25;52.54;99689.00;1625753;87;21148;-76
2021/09/01 10:23:06;;;;;;;4.40;3.98;;;;;;;20.28;52.60;99687.09;1626014;87;21036;-74
2021/09/01 10:25:52;;;;;;;6.05;4.08;;;;;;;20.36;52.65;99685.23;1651451;85;21149;-74
2021/09/01 10:28:35;;;;;;;5.40;2.90;;;;;;;20.48;52.60;99691.73;1668544;84;21063;-74
2021/09/01 10:31:21;;;;;;;4.03;3.37;;;;;;;19.48;52.87;99506.29;1648793;85;21093;-74
2021/09/01 10:34:01;;;;;;;5.35;3.47;;;;;;;20.75;51.60;99677.13;1654845;83;20986;-73
2021/09/01 10:36:44;;;;;;;8.50;4.22;;;;;;;20.90;51.47;99672.25;1676917;83;21653;-73
2021/09/01 10:39:17;;;;;;;8.05;2.87;;;;;;;21.08;50.74;99671.67;1676469;84;21614;-74
2021/09/01 10:41:45;;;;;;;7.03;3.67;;;;;;;21.27;49.93;99677.32;1658026;84;21055;-74
2021/09/01 10:44:23;;;;;;;8.38;3.55;;;;;;;21.34;49.46;99669.72;1648514;85;21077;-74
2021/09/01 10:46:54;;;;;;;6.92;3.05;;;;;;;21.41;49.04;99670.77;1616461;87;21033;-74
2021/09/01 10:49:28;;;;;;;3.17;2.95;;;;;;;21.52;49.23;99665.60;1643174;86;21100;-74
2021/09/01 10:52:04;;;;;;;3.75;3.45;;;;;;;21.60;49.55;99659.34;1626418;86;21133;-74
2021/09/01 10:54:41;;;;;;;2.87;2.67;;;;;;;21.67;48.76;99661.21;1681619;85;21616;-74
2021/09/01 10:57:11;;;;;;;;;;;;;;;21.71;48.75;99663.63;1644793;85;21133;-74
2021/09/01 10:59:39;;;;;;;6.05;2.42;;;;;;;21.73;48.14;99656.02;1649483;85;20140;-74
2021/09/01 11:02:16;;;;;;;3.75;2.80;;;;;;;21.70;48.30;99659.28;1640527;85;20995;-75
2021/09/01 11:04:50;;;;;;;4.58;2.45;;;;;;;21.74;48.66;99661.17;1637019;85;21635;-73
2021/09/01 11:07:30;;;;;;;2.80;2.55;;;;;;;21.78;49.07;99662.78;1642829;85;21133;-74
2021/09/01 11:10:02;;;;;;;4.90;3.33;;;;;;;21.82;48.53;99665.75;1668359;85;21096;-75
2021/09/01 11:12:34;;;;;;;2.58;2.45;;;;;;;21.87;47.64;99665.18;1626208;86;21066;-74
2021/09/01 11:15:01;;;;;;;3.37;2.42;;;;;;;21.91;47.73;99668.95;1625985;86;21080;-74
2021/09/01 11:17:29;;;;;;;11.15;2.17;;;;;;;21.89;46.21;99676.56;1650064;85;21078;-75
2021/09/01 11:20:00;;;;;;;1.57;1.47;;;;;;;21.83;46.54;99669.55;1659848;85;21114;-76
2021/09/01 11:22:36;;;;;;;5.12;2.35;;;;;;;21.78;47.61;99671.73;1657293;85;21859;-76
2021/09/01 11:25:10;;;;;;;1.92;1.82;;;;;;;21.74;48.27;99665.23;1647236;85;21061;-75
2021/09/01 11:27:50;;;;;;;6.10;2.67;;;;;;;21.72;49.01;99662.00;1647344;85;21439;-75
2021/09/01 11:30:16;;;;;;;2.25;2.02;;;;;;;21.70;48.83;99670.96;1649420;85;20983;-75
2021/09/01 11:32:43;;;;;;;6.60;1.77;;;;;;;21.69;48.38;99667.97;1634710;86;21291;-84
2021/09/01 11:35:18;;;;;;;2.90;2.08;;;;;;;21.67;47.58;99662.56;1624915;86;21124;-77
2021/09/01 11:37:43;;;;;;;2.35;1.70;;;;;;;21.63;47.40;99666.37;1660711;85;21115;-76
2021/09/01 11:40:10;;;;;;;;;;;;;;;21.61;47.55;99659.62;1626856;87;21623;-76
2021/09/01 11:42:36;;;;;;;2.35;2.15;;;;;;;21.62;47.58;99653.09;1645819;85;20201;-76
2021/09/01 11:45:03;;;;;;;2.67;1.55;;;;;;;21.57;47.79;99648.52;1638100;85;21047;-75
2021/09/01 11:47:30;;;;;;;2.15;2.00;;;;;;;21.59;48.08;99650.41;1685849;84;21094;-75